sensor_id;sensor_type;location;lat;lon;timestamp;P1;durP1;ratioP1;P2;durP2;ratioP2
76701;SDS011;70097;44.536;0.146;2023-09-19T00:02:41;12.63;;;2.53;;
76701;SDS011;70097;44.536;0.146;2023-09-19T00:08:14;12.60;;;2.63;;
76701;SDS011;70097;44.536;0.146;2023-09-19T00:13:47;9.20;;;2.47;;
76701;SDS011;70097;44.536;0.146;2023-09-19T00:19:18;11.10;;;2.17;;
76701;SDS011;70097;44.536;0.146;2023-09-19T00:24:52;5.97;;;2.23;;
76701;SDS011;70097;44.536;0.146;2023-09-19T00:30:25;12.70;;;2.97;;
76701;SDS011;70097;44.536;0.146;2023-09-19T00:35:58;13.30;;;2.73;;
76701;SDS011;70097;44.536;0.146;2023-09-19T00:41:31;10.20;;;2.83;;
76701;SDS011;70097;44.536;0.146;2023-09-19T00:47:05;14.33;;;2.67;;
76701;SDS011;70097;44.536;0.146;2023-09-19T00:52:37;9.53;;;2.97;;
76701;SDS011;70097;44.536;0.146;2023-09-19T00:58:10;23.60;;;4.13;;
76701;SDS011;70097;44.536;0.146;2023-09-19T01:03:43;19.47;;;2.57;;
76701;SDS011;70097;44.536;0.146;2023-09-19T01:09:16;7.53;;;2.47;;
76701;SDS011;70097;44.536;0.146;2023-09-19T01:14:50;15.77;;;3.10;;
76701;SDS011;70097;44.536;0.146;2023-09-19T01:20:21;15.30;;;2.40;;
76701;SDS011;70097;44.536;0.146;2023-09-19T01:26:04;9.27;;;2.43;;
76701;SDS011;70097;44.536;0.146;2023-09-19T01:31:28;12.60;;;2.90;;
76701;SDS011;70097;44.536;0.146;2023-09-19T01:36:59;13.50;;;2.80;;
76701;SDS011;70097;44.536;0.146;2023-09-19T01:42:35;8.90;;;2.30;;
76701;SDS011;70097;44.536;0.146;2023-09-19T01:48:10;15.30;;;3.67;;
76701;SDS011;70097;44.536;0.146;2023-09-19T01:53:40;15.03;;;2.93;;
76701;SDS011;70097;44.536;0.146;2023-09-19T01:59:11;9.77;;;2.90;;
76701;SDS011;70097;44.536;0.146;2023-09-19T02:04:43;18.13;;;3.23;;
76701;SDS011;70097;44.536;0.146;2023-09-19T02:10:17;12.47;;;2.83;;
76701;SDS011;70097;44.536;0.146;2023-09-19T02:15:49;13.80;;;2.67;;
76701;SDS011;70097;44.536;0.146;2023-09-19T02:21:21;13.07;;;3.20;;
76701;SDS011;70097;44.536;0.146;2023-09-19T02:26:54;7.43;;;2.67;;
76701;SDS011;70097;44.536;0.146;2023-09-19T02:32:27;10.73;;;3.17;;
76701;SDS011;70097;44.536;0.146;2023-09-19T02:38:00;10.00;;;3.30;;
76701;SDS011;70097;44.536;0.146;2023-09-19T02:43:33;13.57;;;3.13;;
76701;SDS011;70097;44.536;0.146;2023-09-19T02:49:06;12.17;;;2.67;;
76701;SDS011;70097;44.536;0.146;2023-09-19T02:54:38;13.27;;;3.27;;
76701;SDS011;70097;44.536;0.146;2023-09-19T03:00:12;8.50;;;2.93;;
76701;SDS011;70097;44.536;0.146;2023-09-19T03:05:45;15.80;;;3.87;;
76701;SDS011;70097;44.536;0.146;2023-09-19T03:11:18;12.97;;;3.37;;
76701;SDS011;70097;44.536;0.146;2023-09-19T03:16:50;11.60;;;3.20;;
76701;SDS011;70097;44.536;0.146;2023-09-19T03:22:24;15.13;;;3.83;;
76701;SDS011;70097;44.536;0.146;2023-09-19T03:27:57;14.43;;;3.27;;
76701;SDS011;70097;44.536;0.146;2023-09-19T03:33:28;13.47;;;4.20;;
76701;SDS011;70097;44.536;0.146;2023-09-19T03:39:02;17.43;;;4.03;;
76701;SDS011;70097;44.536;0.146;2023-09-19T03:44:35;10.63;;;3.20;;
76701;SDS011;70097;44.536;0.146;2023-09-19T03:50:07;14.53;;;3.60;;
76701;SDS011;70097;44.536;0.146;2023-09-19T03:55:41;13.87;;;4.10;;
76701;SDS011;70097;44.536;0.146;2023-09-19T04:01:14;14.17;;;3.90;;
76701;SDS011;70097;44.536;0.146;2023-09-19T04:06:47;11.27;;;3.73;;
76701;SDS011;70097;44.536;0.146;2023-09-19T04:12:20;13.03;;;3.97;;
76701;SDS011;70097;44.536;0.146;2023-09-19T04:17:53;13.17;;;4.03;;
76701;SDS011;70097;44.536;0.146;2023-09-19T04:23:25;18.90;;;4.03;;
76701;SDS011;70097;44.536;0.146;2023-09-19T04:28:57;12.07;;;3.60;;
76701;SDS011;70097;44.536;0.146;2023-09-19T04:34:31;14.03;;;4.90;;
76701;SDS011;70097;44.536;0.146;2023-09-19T04:40:04;21.17;;;5.00;;
76701;SDS011;70097;44.536;0.146;2023-09-19T04:45:37;14.33;;;5.10;;
76701;SDS011;70097;44.536;0.146;2023-09-19T04:51:10;13.63;;;3.93;;
76701;SDS011;70097;44.536;0.146;2023-09-19T04:56:43;15.53;;;4.13;;
76701;SDS011;70097;44.536;0.146;2023-09-19T05:02:16;17.27;;;3.87;;
76701;SDS011;70097;44.536;0.146;2023-09-19T05:07:49;19.67;;;5.20;;
76701;SDS011;70097;44.536;0.146;2023-09-19T05:13:22;10.93;;;4.67;;
76701;SDS011;70097;44.536;0.146;2023-09-19T05:18:53;19.87;;;6.03;;
76701;SDS011;70097;44.536;0.146;2023-09-19T05:24:25;52.10;;;7.60;;
76701;SDS011;70097;44.536;0.146;2023-09-19T05:29:59;72.23;;;8.80;;
76701;SDS011;70097;44.536;0.146;2023-09-19T05:35:32;203.23;;;12.50;;
76701;SDS011;70097;44.536;0.146;2023-09-19T05:41:05;146.50;;;10.90;;
76701;SDS011;70097;44.536;0.146;2023-09-19T05:46:39;75.77;;;6.93;;
76701;SDS011;70097;44.536;0.146;2023-09-19T05:52:12;220.50;;;11.60;;
76701;SDS011;70097;44.536;0.146;2023-09-19T05:57:47;176.67;;;10.20;;
76701;SDS011;70097;44.536;0.146;2023-09-19T06:03:16;47.20;;;7.30;;
76701;SDS011;70097;44.536;0.146;2023-09-19T06:08:50;190.00;;;11.93;;
76701;SDS011;70097;44.536;0.146;2023-09-19T06:14:23;238.33;;;16.00;;
76701;SDS011;70097;44.536;0.146;2023-09-19T06:19:57;100.17;;;8.70;;
76701;SDS011;70097;44.536;0.146;2023-09-19T06:25:29;200.83;;;12.10;;
76701;SDS011;70097;44.536;0.146;2023-09-19T06:31:02;70.73;;;6.63;;
76701;SDS011;70097;44.536;0.146;2023-09-19T06:36:36;76.53;;;6.77;;
76701;SDS011;70097;44.536;0.146;2023-09-19T06:42:09;126.30;;;8.63;;
76701;SDS011;70097;44.536;0.146;2023-09-19T06:47:42;122.77;;;9.13;;
76701;SDS011;70097;44.536;0.146;2023-09-19T06:53:15;109.20;;;7.30;;
76701;SDS011;70097;44.536;0.146;2023-09-19T06:58:48;106.90;;;11.43;;
76701;SDS011;70097;44.536;0.146;2023-09-19T07:04:21;213.50;;;11.53;;
76701;SDS011;70097;44.536;0.146;2023-09-19T07:09:54;97.83;;;9.83;;
76701;SDS011;70097;44.536;0.146;2023-09-19T07:15:27;194.80;;;11.67;;
76701;SDS011;70097;44.536;0.146;2023-09-19T07:20:59;112.87;;;11.80;;
76701;SDS011;70097;44.536;0.146;2023-09-19T07:26:33;168.07;;;11.03;;
76701;SDS011;70097;44.536;0.146;2023-09-19T07:32:05;64.10;;;18.63;;
76701;SDS011;70097;44.536;0.146;2023-09-19T07:37:38;264.53;;;18.93;;
76701;SDS011;70097;44.536;0.146;2023-09-19T07:43:11;14.20;;;7.93;;
76701;SDS011;70097;44.536;0.146;2023-09-19T07:48:43;171.30;;;12.37;;
76701;SDS011;70097;44.536;0.146;2023-09-19T07:54:16;38.80;;;17.57;;
76701;SDS011;70097;44.536;0.146;2023-09-19T07:59:49;54.50;;;25.70;;
76701;SDS011;70097;44.536;0.146;2023-09-19T08:05:21;27.50;;;10.57;;
76701;SDS011;70097;44.536;0.146;2023-09-19T08:10:53;29.30;;;12.07;;
76701;SDS011;70097;44.536;0.146;2023-09-19T08:16:25;15.30;;;6.70;;
76701;SDS011;70097;44.536;0.146;2023-09-19T08:22:00;12.67;;;6.63;;
76701;SDS011;70097;44.536;0.146;2023-09-19T08:27:32;10.00;;;4.73;;
76701;SDS011;70097;44.536;0.146;2023-09-19T08:33:06;14.13;;;5.33;;
76701;SDS011;70097;44.536;0.146;2023-09-19T08:38:39;17.67;;;5.50;;
76701;SDS011;70097;44.536;0.146;2023-09-19T08:44:12;10.20;;;4.13;;
76701;SDS011;70097;44.536;0.146;2023-09-19T08:49:48;12.23;;;5.30;;
76701;SDS011;70097;44.536;0.146;2023-09-19T08:55:19;8.00;;;3.73;;
76701;SDS011;70097;44.536;0.146;2023-09-19T09:00:52;8.07;;;3.47;;
76701;SDS011;70097;44.536;0.146;2023-09-19T09:06:26;8.03;;;3.50;;
76701;SDS011;70097;44.536;0.146;2023-09-19T09:11:59;10.80;;;3.50;;
76701;SDS011;70097;44.536;0.146;2023-09-19T09:17:33;14.10;;;4.30;;
76701;SDS011;70097;44.536;0.146;2023-09-19T09:23:05;13.23;;;4.13;;
76701;SDS011;70097;44.536;0.146;2023-09-19T09:28:44;9.63;;;2.80;;
76701;SDS011;70097;44.536;0.146;2023-09-19T09:34:09;11.53;;;3.40;;
76701;SDS011;70097;44.536;0.146;2023-09-19T09:39:45;13.13;;;2.03;;
76701;SDS011;70097;44.536;0.146;2023-09-19T09:45:15;8.47;;;2.03;;
76701;SDS011;70097;44.536;0.146;2023-09-19T09:50:48;10.37;;;2.53;;
76701;SDS011;70097;44.536;0.146;2023-09-19T09:56:20;13.23;;;2.13;;
76701;SDS011;70097;44.536;0.146;2023-09-19T10:01:54;8.70;;;2.27;;
76701;SDS011;70097;44.536;0.146;2023-09-19T10:07:28;8.33;;;1.67;;
76701;SDS011;70097;44.536;0.146;2023-09-19T10:13:01;7.17;;;1.70;;
76701;SDS011;70097;44.536;0.146;2023-09-19T10:18:34;8.40;;;1.70;;
76701;SDS011;70097;44.536;0.146;2023-09-19T10:24:06;10.43;;;1.93;;
76701;SDS011;70097;44.536;0.146;2023-09-19T10:29:39;10.27;;;1.93;;
76701;SDS011;70097;44.536;0.146;2023-09-19T10:35:13;8.10;;;1.40;;
76701;SDS011;70097;44.536;0.146;2023-09-19T10:40:48;6.97;;;1.50;;
76701;SDS011;70097;44.536;0.146;2023-09-19T10:46:19;6.23;;;1.60;;
76701;SDS011;70097;44.536;0.146;2023-09-19T10:51:52;4.77;;;1.23;;
76701;SDS011;70097;44.536;0.146;2023-09-19T10:57:24;11.57;;;3.00;;
76701;SDS011;70097;44.536;0.146;2023-09-19T11:08:31;5.40;;;1.27;;
76701;SDS011;70097;44.536;0.146;2023-09-19T11:30:41;8.60;;;1.57;;
76701;SDS011;70097;44.536;0.146;2023-09-19T11:36:14;3.50;;;1.40;;
76701;SDS011;70097;44.536;0.146;2023-09-19T11:41:46;5.87;;;1.27;;
76701;SDS011;70097;44.536;0.146;2023-09-19T11:47:19;4.73;;;1.13;;
76701;SDS011;70097;44.536;0.146;2023-09-19T11:52:52;5.53;;;1.23;;
76701;SDS011;70097;44.536;0.146;2023-09-19T11:58:25;6.03;;;1.20;;
76701;SDS011;70097;44.536;0.146;2023-09-19T12:03:59;4.43;;;1.00;;
76701;SDS011;70097;44.536;0.146;2023-09-19T12:09:31;6.17;;;1.33;;
76701;SDS011;70097;44.536;0.146;2023-09-19T12:15:05;3.83;;;1.20;;
76701;SDS011;70097;44.536;0.146;2023-09-19T12:20:42;4.10;;;1.00;;
76701;SDS011;70097;44.536;0.146;2023-09-19T12:26:11;4.43;;;1.43;;
76701;SDS011;70097;44.536;0.146;2023-09-19T12:31:48;7.17;;;1.50;;
76701;SDS011;70097;44.536;0.146;2023-09-19T12:37:17;6.87;;;1.37;;
76701;SDS011;70097;44.536;0.146;2023-09-19T12:42:49;5.37;;;1.37;;
76701;SDS011;70097;44.536;0.146;2023-09-19T12:48:21;4.13;;;1.43;;
76701;SDS011;70097;44.536;0.146;2023-09-19T12:53:57;8.43;;;1.40;;
76701;SDS011;70097;44.536;0.146;2023-09-19T12:59:29;4.13;;;1.40;;
76701;SDS011;70097;44.536;0.146;2023-09-19T13:04:59;7.17;;;1.47;;
76701;SDS011;70097;44.536;0.146;2023-09-19T13:10:31;5.40;;;1.10;;
76701;SDS011;70097;44.536;0.146;2023-09-19T13:16:03;7.50;;;1.03;;
76701;SDS011;70097;44.536;0.146;2023-09-19T13:21:36;5.03;;;1.23;;
76701;SDS011;70097;44.536;0.146;2023-09-19T13:27:10;3.53;;;0.80;;
76701;SDS011;70097;44.536;0.146;2023-09-19T13:32:43;6.10;;;1.37;;
76701;SDS011;70097;44.536;0.146;2023-09-19T13:38:16;5.00;;;1.10;;
76701;SDS011;70097;44.536;0.146;2023-09-19T13:43:48;4.60;;;1.50;;
76701;SDS011;70097;44.536;0.146;2023-09-19T13:49:22;3.63;;;0.93;;
76701;SDS011;70097;44.536;0.146;2023-09-19T13:54:56;3.97;;;1.03;;
76701;SDS011;70097;44.536;0.146;2023-09-19T14:00:29;3.97;;;1.07;;
76701;SDS011;70097;44.536;0.146;2023-09-19T14:06:01;4.77;;;1.00;;
76701;SDS011;70097;44.536;0.146;2023-09-19T14:11:32;3.53;;;1.17;;
76701;SDS011;70097;44.536;0.146;2023-09-19T14:17:06;5.20;;;1.10;;
76701;SDS011;70097;44.536;0.146;2023-09-19T14:22:39;5.93;;;0.97;;
76701;SDS011;70097;44.536;0.146;2023-09-19T14:28:12;11.17;;;1.20;;
76701;SDS011;70097;44.536;0.146;2023-09-19T14:33:52;4.37;;;0.93;;
76701;SDS011;70097;44.536;0.146;2023-09-19T14:39:19;2.90;;;0.83;;
76701;SDS011;70097;44.536;0.146;2023-09-19T14:44:52;3.77;;;0.70;;
76701;SDS011;70097;44.536;0.146;2023-09-19T14:50:26;4.80;;;0.90;;
76701;SDS011;70097;44.536;0.146;2023-09-19T14:56:00;2.83;;;0.90;;
76701;SDS011;70097;44.536;0.146;2023-09-19T15:01:32;3.70;;;0.80;;
76701;SDS011;70097;44.536;0.146;2023-09-19T15:07:06;6.17;;;1.00;;
76701;SDS011;70097;44.536;0.146;2023-09-19T15:12:38;3.63;;;0.87;;
76701;SDS011;70097;44.536;0.146;2023-09-19T15:18:10;3.53;;;0.80;;
76701;SDS011;70097;44.536;0.146;2023-09-19T15:23:42;5.23;;;0.97;;
76701;SDS011;70097;44.536;0.146;2023-09-19T15:29:15;3.63;;;0.80;;
76701;SDS011;70097;44.536;0.146;2023-09-19T15:34:48;2.97;;;0.97;;
76701;SDS011;70097;44.536;0.146;2023-09-19T15:40:20;3.17;;;0.97;;
76701;SDS011;70097;44.536;0.146;2023-09-19T15:45:52;4.10;;;1.10;;
76701;SDS011;70097;44.536;0.146;2023-09-19T15:51:24;2.07;;;0.97;;
76701;SDS011;70097;44.536;0.146;2023-09-19T15:56:58;3.47;;;1.00;;
76701;SDS011;70097;44.536;0.146;2023-09-19T16:02:31;3.90;;;0.87;;
76701;SDS011;70097;44.536;0.146;2023-09-19T16:08:03;5.90;;;0.97;;
76701;SDS011;70097;44.536;0.146;2023-09-19T16:13:36;3.33;;;0.87;;
76701;SDS011;70097;44.536;0.146;2023-09-19T16:19:08;5.27;;;1.00;;
76701;SDS011;70097;44.536;0.146;2023-09-19T16:24:41;8.07;;;1.30;;
76701;SDS011;70097;44.536;0.146;2023-09-19T16:30:13;3.73;;;1.20;;
76701;SDS011;70097;44.536;0.146;2023-09-19T16:35:46;3.30;;;0.90;;
76701;SDS011;70097;44.536;0.146;2023-09-19T16:41:19;6.03;;;0.87;;
76701;SDS011;70097;44.536;0.146;2023-09-19T16:46:51;6.27;;;1.20;;
76701;SDS011;70097;44.536;0.146;2023-09-19T16:52:24;7.77;;;1.00;;
76701;SDS011;70097;44.536;0.146;2023-09-19T16:57:58;6.80;;;1.47;;
76701;SDS011;70097;44.536;0.146;2023-09-19T17:03:29;4.60;;;0.80;;
76701;SDS011;70097;44.536;0.146;2023-09-19T17:09:02;6.33;;;1.30;;
76701;SDS011;70097;44.536;0.146;2023-09-19T17:14:35;2.97;;;0.90;;
76701;SDS011;70097;44.536;0.146;2023-09-19T17:20:08;8.57;;;1.10;;
76701;SDS011;70097;44.536;0.146;2023-09-19T17:25:41;4.50;;;0.90;;
76701;SDS011;70097;44.536;0.146;2023-09-19T17:31:14;2.23;;;1.00;;
76701;SDS011;70097;44.536;0.146;2023-09-19T17:36:46;3.33;;;0.90;;
76701;SDS011;70097;44.536;0.146;2023-09-19T17:42:18;5.30;;;1.10;;
76701;SDS011;70097;44.536;0.146;2023-09-19T17:47:50;4.03;;;1.00;;
76701;SDS011;70097;44.536;0.146;2023-09-19T17:53:24;4.57;;;1.13;;
76701;SDS011;70097;44.536;0.146;2023-09-19T17:58:56;4.37;;;1.40;;
76701;SDS011;70097;44.536;0.146;2023-09-19T18:04:28;7.33;;;2.07;;
76701;SDS011;70097;44.536;0.146;2023-09-19T18:10:00;6.97;;;1.57;;
76701;SDS011;70097;44.536;0.146;2023-09-19T18:15:35;5.27;;;1.47;;
76701;SDS011;70097;44.536;0.146;2023-09-19T18:21:07;5.80;;;1.60;;
76701;SDS011;70097;44.536;0.146;2023-09-19T18:26:40;6.07;;;1.60;;
76701;SDS011;70097;44.536;0.146;2023-09-19T18:32:18;6.37;;;1.10;;
76701;SDS011;70097;44.536;0.146;2023-09-19T18:40:12;5.30;;;1.10;;
76701;SDS011;70097;44.536;0.146;2023-09-19T18:54:24;2.60;;;0.90;;
76701;SDS011;70097;44.536;0.146;2023-09-19T18:59:55;4.10;;;1.20;;
76701;SDS011;70097;44.536;0.146;2023-09-19T19:05:30;3.87;;;1.23;;
76701;SDS011;70097;44.536;0.146;2023-09-19T19:11:05;4.33;;;1.03;;
76701;SDS011;70097;44.536;0.146;2023-09-19T19:16:34;4.50;;;1.10;;
76701;SDS011;70097;44.536;0.146;2023-09-19T19:38:45;4.70;;;1.30;;
76701;SDS011;70097;44.536;0.146;2023-09-19T19:44:16;6.60;;;1.37;;
76701;SDS011;70097;44.536;0.146;2023-09-19T19:49:48;4.13;;;1.10;;
76701;SDS011;70097;44.536;0.146;2023-09-19T19:55:20;5.17;;;1.47;;
76701;SDS011;70097;44.536;0.146;2023-09-19T20:00:54;8.20;;;1.40;;
76701;SDS011;70097;44.536;0.146;2023-09-19T20:06:25;2.50;;;1.03;;
76701;SDS011;70097;44.536;0.146;2023-09-19T20:11:58;5.30;;;1.57;;
76701;SDS011;70097;44.536;0.146;2023-09-19T20:17:30;6.80;;;1.90;;
76701;SDS011;70097;44.536;0.146;2023-09-19T20:23:03;7.20;;;1.40;;
76701;SDS011;70097;44.536;0.146;2023-09-19T20:28:35;4.73;;;1.07;;
76701;SDS011;70097;44.536;0.146;2023-09-19T20:34:08;5.10;;;1.07;;
76701;SDS011;70097;44.536;0.146;2023-09-19T20:39:41;6.23;;;1.40;;
76701;SDS011;70097;44.536;0.146;2023-09-19T20:45:13;7.63;;;1.33;;
76701;SDS011;70097;44.536;0.146;2023-09-19T20:50:45;8.40;;;1.83;;
76701;SDS011;70097;44.536;0.146;2023-09-19T20:56:18;13.70;;;1.60;;
76701;SDS011;70097;44.536;0.146;2023-09-19T21:01:51;18.17;;;2.70;;
76701;SDS011;70097;44.536;0.146;2023-09-19T21:07:23;5.40;;;1.27;;
76701;SDS011;70097;44.536;0.146;2023-09-19T21:12:56;5.53;;;1.13;;
76701;SDS011;70097;44.536;0.146;2023-09-19T21:18:29;10.50;;;1.43;;
76701;SDS011;70097;44.536;0.146;2023-09-19T21:24:03;8.77;;;1.40;;
76701;SDS011;70097;44.536;0.146;2023-09-19T21:29:35;5.53;;;1.27;;
76701;SDS011;70097;44.536;0.146;2023-09-19T21:35:07;5.97;;;1.50;;
76701;SDS011;70097;44.536;0.146;2023-09-19T21:40:40;4.97;;;1.03;;
76701;SDS011;70097;44.536;0.146;2023-09-19T21:46:14;7.67;;;1.47;;
76701;SDS011;70097;44.536;0.146;2023-09-19T21:51:47;4.50;;;1.17;;
76701;SDS011;70097;44.536;0.146;2023-09-19T21:57:19;7.53;;;1.13;;
76701;SDS011;70097;44.536;0.146;2023-09-19T22:02:52;7.00;;;2.43;;
76701;SDS011;70097;44.536;0.146;2023-09-19T22:08:25;3.17;;;0.90;;
76701;SDS011;70097;44.536;0.146;2023-09-19T22:13:58;7.17;;;1.40;;
76701;SDS011;70097;44.536;0.146;2023-09-19T22:19:31;11.00;;;1.20;;
76701;SDS011;70097;44.536;0.146;2023-09-19T22:25:04;11.30;;;1.90;;
76701;SDS011;70097;44.536;0.146;2023-09-19T22:30:38;2.60;;;1.00;;
76701;SDS011;70097;44.536;0.146;2023-09-19T22:36:09;9.63;;;1.30;;
76701;SDS011;70097;44.536;0.146;2023-09-19T22:41:43;8.07;;;1.80;;
76701;SDS011;70097;44.536;0.146;2023-09-19T22:47:15;8.03;;;1.63;;
76701;SDS011;70097;44.536;0.146;2023-09-19T22:52:48;5.80;;;1.33;;
76701;SDS011;70097;44.536;0.146;2023-09-19T22:58:21;4.83;;;1.67;;
76701;SDS011;70097;44.536;0.146;2023-09-19T23:03:55;3.67;;;1.13;;
76701;SDS011;70097;44.536;0.146;2023-09-19T23:09:27;4.53;;;1.40;;
76701;SDS011;70097;44.536;0.146;2023-09-19T23:15:00;7.10;;;1.67;;
76701;SDS011;70097;44.536;0.146;2023-09-19T23:20:33;3.37;;;1.00;;
76701;SDS011;70097;44.536;0.146;2023-09-19T23:26:05;4.70;;;1.70;;
76701;SDS011;70097;44.536;0.146;2023-09-19T23:31:38;7.43;;;2.47;;
76701;SDS011;70097;44.536;0.146;2023-09-19T23:37:12;5.97;;;2.40;;
76701;SDS011;70097;44.536;0.146;2023-09-19T23:42:45;7.33;;;2.50;;
76701;SDS011;70097;44.536;0.146;2023-09-19T23:48:19;5.57;;;1.83;;
76701;SDS011;70097;44.536;0.146;2023-09-19T23:53:51;7.43;;;2.40;;
76701;SDS011;70097;44.536;0.146;2023-09-19T23:59:23;8.03;;;1.80;;
